sensor_id;sensor_type;location;lat;lon;timestamp;temperature;humidity
69546;SHT31;56766;52.260;20.746;2022-11-04T00:02:04;6.53;85.30
69546;SHT31;56766;52.260;20.746;2022-11-04T00:04:31;6.57;85.23
69546;SHT31;56766;52.260;20.746;2022-11-04T00:06:58;6.60;85.18
69546;SHT31;56766;52.260;20.746;2022-11-04T00:09:27;6.62;85.17
69546;SHT31;56766;52.260;20.746;2022-11-04T00:11:56;6.64;85.19
69546;SHT31;56766;52.260;20.746;2022-11-04T00:14:42;6.70;85.22
69546;SHT31;56766;52.260;20.746;2022-11-04T00:17:11;6.77;85.23
69546;SHT31;56766;52.260;20.746;2022-11-04T00:19:54;6.84;85.20
69546;SHT31;56766;52.260;20.746;2022-11-04T00:22:41;6.91;85.10
69546;SHT31;56766;52.260;20.746;2022-11-04T00:25:26;6.98;85.00
69546;SHT31;56766;52.260;20.746;2022-11-04T00:28:19;7.05;84.92
69546;SHT31;56766;52.260;20.746;2022-11-04T00:31:07;7.10;84.86
69546;SHT31;56766;52.260;20.746;2022-11-04T00:33:57;7.17;84.74
69546;SHT31;56766;52.260;20.746;2022-11-04T00:36:24;7.22;84.63
69546;SHT31;56766;52.260;20.746;2022-11-04T00:38:52;7.27;84.53
69546;SHT31;56766;52.260;20.746;2022-11-04T00:41:19;7.30;84.48
69546;SHT31;56766;52.260;20.746;2022-11-04T00:43:54;7.33;84.39
69546;SHT31;56766;52.260;20.746;2022-11-04T00:46:26;7.34;84.27
69546;SHT31;56766;52.260;20.746;2022-11-04T00:48:54;7.35;84.17
69546;SHT31;56766;52.260;20.746;2022-11-04T00:51:22;7.34;84.05
69546;SHT31;56766;52.260;20.746;2022-11-04T00:53:51;7.34;83.96
69546;SHT31;56766;52.260;20.746;2022-11-04T00:56:18;7.32;83.92
69546;SHT31;56766;52.260;20.746;2022-11-04T00:58:45;7.32;83.90
69546;SHT31;56766;52.260;20.746;2022-11-04T01:01:14;7.32;83.89
69546;SHT31;56766;52.260;20.746;2022-11-04T01:03:47;7.33;83.83
69546;SHT31;56766;52.260;20.746;2022-11-04T01:06:16;7.33;83.90
69546;SHT31;56766;52.260;20.746;2022-11-04T01:08:44;7.34;83.93
69546;SHT31;56766;52.260;20.746;2022-11-04T01:11:12;7.37;84.00
69546;SHT31;56766;52.260;20.746;2022-11-04T01:13:39;7.42;83.91
69546;SHT31;56766;52.260;20.746;2022-11-04T01:16:09;7.46;83.90
69546;SHT31;56766;52.260;20.746;2022-11-04T01:18:38;7.51;83.83
69546;SHT31;56766;52.260;20.746;2022-11-04T01:21:09;7.55;83.71
69546;SHT31;56766;52.260;20.746;2022-11-04T01:23:39;7.57;83.54
69546;SHT31;56766;52.260;20.746;2022-11-04T01:26:13;7.61;83.60
69546;SHT31;56766;52.260;20.746;2022-11-04T01:28:41;7.63;83.50
69546;SHT31;56766;52.260;20.746;2022-11-04T01:31:12;7.65;83.48
69546;SHT31;56766;52.260;20.746;2022-11-04T01:33:43;7.67;83.34
69546;SHT31;56766;52.260;20.746;2022-11-04T01:36:10;7.68;83.25
69546;SHT31;56766;52.260;20.746;2022-11-04T01:38:37;7.69;83.13
69546;SHT31;56766;52.260;20.746;2022-11-04T01:41:05;7.66;82.91
69546;SHT31;56766;52.260;20.746;2022-11-04T01:43:55;7.66;82.91
69546;SHT31;56766;52.260;20.746;2022-11-04T01:46:44;7.64;82.93
69546;SHT31;56766;52.260;20.746;2022-11-04T01:49:32;7.64;82.95
69546;SHT31;56766;52.260;20.746;2022-11-04T01:52:11;7.64;82.90
69546;SHT31;56766;52.260;20.746;2022-11-04T01:54:46;7.63;82.89
69546;SHT31;56766;52.260;20.746;2022-11-04T01:57:19;7.63;82.86
69546;SHT31;56766;52.260;20.746;2022-11-04T01:59:51;7.64;82.80
69546;SHT31;56766;52.260;20.746;2022-11-04T02:02:18;7.64;82.78
69546;SHT31;56766;52.260;20.746;2022-11-04T02:04:45;7.64;82.74
69546;SHT31;56766;52.260;20.746;2022-11-04T02:07:12;7.64;82.75
69546;SHT31;56766;52.260;20.746;2022-11-04T02:09:40;7.65;82.70
69546;SHT31;56766;52.260;20.746;2022-11-04T02:12:07;7.66;82.71
69546;SHT31;56766;52.260;20.746;2022-11-04T02:14:53;7.68;82.70
69546;SHT31;56766;52.260;20.746;2022-11-04T02:17:49;7.69;82.66
69546;SHT31;56766;52.260;20.746;2022-11-04T02:20:52;7.68;82.60
69546;SHT31;56766;52.260;20.746;2022-11-04T02:27:17;7.68;82.42
69546;SHT31;56766;52.260;20.746;2022-11-04T02:30:02;7.68;82.39
69546;SHT31;56766;52.260;20.746;2022-11-04T02:33:18;7.67;82.31
69546;SHT31;56766;52.260;20.746;2022-11-04T02:36:35;7.63;82.30
69546;SHT31;56766;52.260;20.746;2022-11-04T02:38:51;7.60;82.31
69546;SHT31;56766;52.260;20.746;2022-11-04T02:41:32;7.59;82.38
69546;SHT31;56766;52.260;20.746;2022-11-04T02:44:19;7.59;82.38
69546;SHT31;56766;52.260;20.746;2022-11-04T02:49:37;7.63;82.30
69546;SHT31;56766;52.260;20.746;2022-11-04T02:52:35;7.63;82.25
69546;SHT31;56766;52.260;20.746;2022-11-04T02:55:16;7.63;82.24
69546;SHT31;56766;52.260;20.746;2022-11-04T02:57:52;7.64;82.25
69546;SHT31;56766;52.260;20.746;2022-11-04T03:00:21;7.65;82.22
69546;SHT31;56766;52.260;20.746;2022-11-04T03:02:57;7.65;82.19
69546;SHT31;56766;52.260;20.746;2022-11-04T03:05:31;7.65;82.20
69546;SHT31;56766;52.260;20.746;2022-11-04T03:08:14;7.62;82.07
69546;SHT31;56766;52.260;20.746;2022-11-04T03:10:52;7.61;82.10
69546;SHT31;56766;52.260;20.746;2022-11-04T03:13:35;7.60;82.09
69546;SHT31;56766;52.260;20.746;2022-11-04T03:16:16;7.61;82.08
69546;SHT31;56766;52.260;20.746;2022-11-04T03:21:25;7.58;82.17
69546;SHT31;56766;52.260;20.746;2022-11-04T03:23:54;7.58;82.20
69546;SHT31;56766;52.260;20.746;2022-11-04T03:29:41;7.62;82.10
69546;SHT31;56766;52.260;20.746;2022-11-04T03:35:28;7.66;82.00
69546;SHT31;56766;52.260;20.746;2022-11-04T03:37:56;7.70;82.00
69546;SHT31;56766;52.260;20.746;2022-11-04T03:40:24;7.73;81.95
69546;SHT31;56766;52.260;20.746;2022-11-04T03:43:10;7.76;81.81
69546;SHT31;56766;52.260;20.746;2022-11-04T03:45:42;7.80;81.68
69546;SHT31;56766;52.260;20.746;2022-11-04T03:48:11;7.81;81.68
69546;SHT31;56766;52.260;20.746;2022-11-04T03:50:41;7.81;81.84
69546;SHT31;56766;52.260;20.746;2022-11-04T03:53:12;7.81;82.17
69546;SHT31;56766;52.260;20.746;2022-11-04T04:05:54;7.88;82.38
69546;SHT31;56766;52.260;20.746;2022-11-04T04:10:58;7.91;82.16
69546;SHT31;56766;52.260;20.746;2022-11-04T04:16:38;7.94;82.01
69546;SHT31;56766;52.260;20.746;2022-11-04T04:19:20;7.96;82.06
69546;SHT31;56766;52.260;20.746;2022-11-04T04:22:07;7.98;82.02
69546;SHT31;56766;52.260;20.746;2022-11-04T04:24:42;7.99;81.95
69546;SHT31;56766;52.260;20.746;2022-11-04T04:27:32;8.02;81.94
69546;SHT31;56766;52.260;20.746;2022-11-04T04:30:08;8.03;81.78
69546;SHT31;56766;52.260;20.746;2022-11-04T04:32:49;8.02;81.75
69546;SHT31;56766;52.260;20.746;2022-11-04T04:35:25;8.02;81.64
69546;SHT31;56766;52.260;20.746;2022-11-04T04:38:24;8.04;81.70
69546;SHT31;56766;52.260;20.746;2022-11-04T04:44:14;8.07;81.57
69546;SHT31;56766;52.260;20.746;2022-11-04T04:47:17;8.09;81.50
69546;SHT31;56766;52.260;20.746;2022-11-04T04:49:54;8.09;81.48
69546;SHT31;56766;52.260;20.746;2022-11-04T04:52:31;8.10;81.41
69546;SHT31;56766;52.260;20.746;2022-11-04T04:54:59;8.13;81.38
69546;SHT31;56766;52.260;20.746;2022-11-04T04:57:26;8.15;81.37
69546;SHT31;56766;52.260;20.746;2022-11-04T04:59:53;8.16;81.23
69546;SHT31;56766;52.260;20.746;2022-11-04T05:02:20;8.17;81.18
69546;SHT31;56766;52.260;20.746;2022-11-04T05:04:46;8.16;81.08
69546;SHT31;56766;52.260;20.746;2022-11-04T05:07:13;8.16;81.07
69546;SHT31;56766;52.260;20.746;2022-11-04T05:09:40;8.18;81.00
69546;SHT31;56766;52.260;20.746;2022-11-04T05:12:07;8.19;80.86
69546;SHT31;56766;52.260;20.746;2022-11-04T05:14:35;8.20;80.87
69546;SHT31;56766;52.260;20.746;2022-11-04T05:17:02;8.20;80.88
69546;SHT31;56766;52.260;20.746;2022-11-04T05:19:30;8.19;80.95
69546;SHT31;56766;52.260;20.746;2022-11-04T05:21:57;8.18;81.04
69546;SHT31;56766;52.260;20.746;2022-11-04T05:24:24;8.18;81.08
69546;SHT31;56766;52.260;20.746;2022-11-04T05:26:51;8.19;81.10
69546;SHT31;56766;52.260;20.746;2022-11-04T05:29:18;8.20;81.07
69546;SHT31;56766;52.260;20.746;2022-11-04T05:31:45;8.20;81.01
69546;SHT31;56766;52.260;20.746;2022-11-04T05:34:13;8.20;80.90
69546;SHT31;56766;52.260;20.746;2022-11-04T05:36:40;8.23;80.84
69546;SHT31;56766;52.260;20.746;2022-11-04T05:39:07;8.24;80.81
69546;SHT31;56766;52.260;20.746;2022-11-04T05:41:36;8.25;80.74
69546;SHT31;56766;52.260;20.746;2022-11-04T05:44:03;8.27;80.64
69546;SHT31;56766;52.260;20.746;2022-11-04T05:46:30;8.27;80.62
69546;SHT31;56766;52.260;20.746;2022-11-04T05:48:57;8.27;80.55
69546;SHT31;56766;52.260;20.746;2022-11-04T05:51:26;8.28;80.55
69546;SHT31;56766;52.260;20.746;2022-11-04T05:53:54;8.31;80.49
69546;SHT31;56766;52.260;20.746;2022-11-04T05:56:20;8.32;80.49
69546;SHT31;56766;52.260;20.746;2022-11-04T05:58:47;8.34;80.35
69546;SHT31;56766;52.260;20.746;2022-11-04T06:03:53;8.38;80.35
69546;SHT31;56766;52.260;20.746;2022-11-04T06:06:22;8.40;80.42
69546;SHT31;56766;52.260;20.746;2022-11-04T06:08:50;8.43;80.38
69546;SHT31;56766;52.260;20.746;2022-11-04T06:11:18;8.48;80.37
69546;SHT31;56766;52.260;20.746;2022-11-04T06:13:46;8.50;80.17
69546;SHT31;56766;52.260;20.746;2022-11-04T06:16:13;8.53;80.22
69546;SHT31;56766;52.260;20.746;2022-11-04T06:18:40;8.55;80.10
69546;SHT31;56766;52.260;20.746;2022-11-04T06:23:56;8.61;80.08
69546;SHT31;56766;52.260;20.746;2022-11-04T06:26:25;8.64;79.96
69546;SHT31;56766;52.260;20.746;2022-11-04T06:28:53;8.68;79.97
69546;SHT31;56766;52.260;20.746;2022-11-04T06:31:20;8.72;79.87
69546;SHT31;56766;52.260;20.746;2022-11-04T06:33:47;8.76;79.83
69546;SHT31;56766;52.260;20.746;2022-11-04T06:36:15;8.80;79.76
69546;SHT31;56766;52.260;20.746;2022-11-04T06:38:43;8.85;79.72
69546;SHT31;56766;52.260;20.746;2022-11-04T06:41:13;8.89;79.60
69546;SHT31;56766;52.260;20.746;2022-11-04T06:43:42;8.93;79.56
69546;SHT31;56766;52.260;20.746;2022-11-04T06:46:28;8.96;79.55
69546;SHT31;56766;52.260;20.746;2022-11-04T06:49:00;8.99;79.58
69546;SHT31;56766;52.260;20.746;2022-11-04T06:51:28;9.03;79.56
69546;SHT31;56766;52.260;20.746;2022-11-04T06:53:54;9.06;79.41
69546;SHT31;56766;52.260;20.746;2022-11-04T06:56:21;9.08;79.32
69546;SHT31;56766;52.260;20.746;2022-11-04T06:58:49;9.11;79.30
69546;SHT31;56766;52.260;20.746;2022-11-04T07:01:18;9.12;79.25
69546;SHT31;56766;52.260;20.746;2022-11-04T07:03:52;9.13;79.18
69546;SHT31;56766;52.260;20.746;2022-11-04T07:06:21;9.12;79.15
69546;SHT31;56766;52.260;20.746;2022-11-04T07:08:50;9.13;79.17
69546;SHT31;56766;52.260;20.746;2022-11-04T07:11:21;9.13;79.08
69546;SHT31;56766;52.260;20.746;2022-11-04T07:13:48;9.13;78.93
69546;SHT31;56766;52.260;20.746;2022-11-04T07:16:16;9.12;78.70
69546;SHT31;56766;52.260;20.746;2022-11-04T07:18:44;9.13;79.04
69546;SHT31;56766;52.260;20.746;2022-11-04T07:21:11;9.16;79.04
69546;SHT31;56766;52.260;20.746;2022-11-04T07:23:38;9.20;78.93
69546;SHT31;56766;52.260;20.746;2022-11-04T07:26:07;9.20;78.73
69546;SHT31;56766;52.260;20.746;2022-11-04T07:28:36;9.19;78.72
69546;SHT31;56766;52.260;20.746;2022-11-04T07:31:05;9.21;78.68
69546;SHT31;56766;52.260;20.746;2022-11-04T07:33:33;9.23;78.67
69546;SHT31;56766;52.260;20.746;2022-11-04T07:36:05;9.23;78.41
69546;SHT31;56766;52.260;20.746;2022-11-04T07:38:34;9.26;78.34
69546;SHT31;56766;52.260;20.746;2022-11-04T07:41:00;9.28;78.27
69546;SHT31;56766;52.260;20.746;2022-11-04T07:43:28;9.31;78.32
69546;SHT31;56766;52.260;20.746;2022-11-04T07:46:14;9.36;78.46
69546;SHT31;56766;52.260;20.746;2022-11-04T07:48:41;9.41;78.22
69546;SHT31;56766;52.260;20.746;2022-11-04T07:51:11;9.43;78.04
69546;SHT31;56766;52.260;20.746;2022-11-04T07:53:42;9.45;78.06
69546;SHT31;56766;52.260;20.746;2022-11-04T07:56:10;9.47;78.08
69546;SHT31;56766;52.260;20.746;2022-11-04T07:58:39;9.49;77.91
69546;SHT31;56766;52.260;20.746;2022-11-04T08:01:10;9.52;77.96
69546;SHT31;56766;52.260;20.746;2022-11-04T08:03:39;9.56;77.84
69546;SHT31;56766;52.260;20.746;2022-11-04T08:06:09;9.59;77.62
69546;SHT31;56766;52.260;20.746;2022-11-04T08:08:37;9.65;77.72
69546;SHT31;56766;52.260;20.746;2022-11-04T08:11:08;9.73;77.75
69546;SHT31;56766;52.260;20.746;2022-11-04T08:13:37;9.77;77.64
69546;SHT31;56766;52.260;20.746;2022-11-04T08:16:07;9.82;77.65
69546;SHT31;56766;52.260;20.746;2022-11-04T08:18:39;9.87;77.50
69546;SHT31;56766;52.260;20.746;2022-11-04T08:21:07;9.92;77.46
69546;SHT31;56766;52.260;20.746;2022-11-04T08:23:35;9.97;77.42
69546;SHT31;56766;52.260;20.746;2022-11-04T08:26:07;9.98;77.14
69546;SHT31;56766;52.260;20.746;2022-11-04T08:28:35;9.96;77.36
69546;SHT31;56766;52.260;20.746;2022-11-04T08:31:18;9.95;77.31
69546;SHT31;56766;52.260;20.746;2022-11-04T08:33:46;9.91;77.51
69546;SHT31;56766;52.260;20.746;2022-11-04T08:36:19;9.89;77.65
69546;SHT31;56766;52.260;20.746;2022-11-04T08:38:48;9.86;77.71
69546;SHT31;56766;52.260;20.746;2022-11-04T08:41:17;9.80;77.67
69546;SHT31;56766;52.260;20.746;2022-11-04T08:43:47;9.75;77.56
69546;SHT31;56766;52.260;20.746;2022-11-04T08:46:14;9.75;77.80
69546;SHT31;56766;52.260;20.746;2022-11-04T08:48:42;9.80;77.90
69546;SHT31;56766;52.260;20.746;2022-11-04T08:51:14;9.84;77.90
69546;SHT31;56766;52.260;20.746;2022-11-04T08:53:44;9.85;78.14
69546;SHT31;56766;52.260;20.746;2022-11-04T08:56:14;9.83;78.38
69546;SHT31;56766;52.260;20.746;2022-11-04T08:58:42;9.84;78.60
69546;SHT31;56766;52.260;20.746;2022-11-04T09:01:10;9.87;78.79
69546;SHT31;56766;52.260;20.746;2022-11-04T09:03:39;9.93;78.90
69546;SHT31;56766;52.260;20.746;2022-11-04T09:06:12;10.01;78.91
69546;SHT31;56766;52.260;20.746;2022-11-04T09:08:44;10.07;79.00
69546;SHT31;56766;52.260;20.746;2022-11-04T09:11:14;10.11;78.91
69546;SHT31;56766;52.260;20.746;2022-11-04T09:13:43;10.14;78.92
69546;SHT31;56766;52.260;20.746;2022-11-04T09:16:12;10.20;78.97
69546;SHT31;56766;52.260;20.746;2022-11-04T09:18:40;10.30;78.81
69546;SHT31;56766;52.260;20.746;2022-11-04T09:21:09;10.47;78.84
69546;SHT31;56766;52.260;20.746;2022-11-04T09:23:37;10.63;78.52
69546;SHT31;56766;52.260;20.746;2022-11-04T09:26:11;10.78;78.29
69546;SHT31;56766;52.260;20.746;2022-11-04T09:28:40;10.90;77.86
69546;SHT31;56766;52.260;20.746;2022-11-04T09:31:17;10.99;77.65
69546;SHT31;56766;52.260;20.746;2022-11-04T09:33:44;11.11;77.42
69546;SHT31;56766;52.260;20.746;2022-11-04T09:36:11;11.22;77.02
69546;SHT31;56766;52.260;20.746;2022-11-04T09:38:41;11.29;76.57
69546;SHT31;56766;52.260;20.746;2022-11-04T09:41:37;11.36;76.33
69546;SHT31;56766;52.260;20.746;2022-11-04T09:44:47;11.47;76.08
69546;SHT31;56766;52.260;20.746;2022-11-04T09:47:20;11.63;75.69
69546;SHT31;56766;52.260;20.746;2022-11-04T09:49:52;11.74;75.24
69546;SHT31;56766;52.260;20.746;2022-11-04T09:52:27;11.84;74.95
69546;SHT31;56766;52.260;20.746;2022-11-04T09:55:09;11.97;74.39
69546;SHT31;56766;52.260;20.746;2022-11-04T09:57:54;12.19;74.34
69546;SHT31;56766;52.260;20.746;2022-11-04T10:00:24;12.48;73.71
69546;SHT31;56766;52.260;20.746;2022-11-04T10:09:07;13.13;71.92
69546;SHT31;56766;52.260;20.746;2022-11-04T10:17:43;12.93;70.66
69546;SHT31;56766;52.260;20.746;2022-11-04T10:23:44;12.66;70.95
69546;SHT31;56766;52.260;20.746;2022-11-04T10:26:32;12.77;70.90
69546;SHT31;56766;52.260;20.746;2022-11-04T10:32:00;12.82;70.68
69546;SHT31;56766;52.260;20.746;2022-11-04T10:34:49;12.82;70.73
69546;SHT31;56766;52.260;20.746;2022-11-04T10:37:24;12.90;70.31
69546;SHT31;56766;52.260;20.746;2022-11-04T10:42:41;13.04;69.53
69546;SHT31;56766;52.260;20.746;2022-11-04T10:45:11;13.11;70.16
69546;SHT31;56766;52.260;20.746;2022-11-04T10:48:05;13.18;69.56
69546;SHT31;56766;52.260;20.746;2022-11-04T10:51:00;13.28;69.26
69546;SHT31;56766;52.260;20.746;2022-11-04T10:53:30;13.40;69.01
69546;SHT31;56766;52.260;20.746;2022-11-04T10:56:21;13.42;68.84
69546;SHT31;56766;52.260;20.746;2022-11-04T10:59:08;13.38;69.11
69546;SHT31;56766;52.260;20.746;2022-11-04T11:01:50;13.47;69.24
69546;SHT31;56766;52.260;20.746;2022-11-04T11:04:29;13.64;68.53
69546;SHT31;56766;52.260;20.746;2022-11-04T11:07:02;13.68;68.18
69546;SHT31;56766;52.260;20.746;2022-11-04T11:14:41;13.40;68.42
69546;SHT31;56766;52.260;20.746;2022-11-04T11:19:58;13.44;68.67
69546;SHT31;56766;52.260;20.746;2022-11-04T11:22:42;13.50;68.50
69546;SHT31;56766;52.260;20.746;2022-11-04T11:28:07;13.39;68.22
69546;SHT31;56766;52.260;20.746;2022-11-04T11:30:52;13.26;68.35
69546;SHT31;56766;52.260;20.746;2022-11-04T11:33:29;13.16;68.48
69546;SHT31;56766;52.260;20.746;2022-11-04T11:36:05;13.10;68.83
69546;SHT31;56766;52.260;20.746;2022-11-04T11:39:00;13.15;69.12
69546;SHT31;56766;52.260;20.746;2022-11-04T11:41:33;13.27;68.84
69546;SHT31;56766;52.260;20.746;2022-11-04T11:44:47;13.47;69.07
69546;SHT31;56766;52.260;20.746;2022-11-04T11:52:50;14.38;67.64
69546;SHT31;56766;52.260;20.746;2022-11-04T11:55:27;14.57;66.86
69546;SHT31;56766;52.260;20.746;2022-11-04T12:01:31;14.65;65.16
69546;SHT31;56766;52.260;20.746;2022-11-04T12:04:03;14.57;65.18
69546;SHT31;56766;52.260;20.746;2022-11-04T12:06:46;14.54;65.18
69546;SHT31;56766;52.260;20.746;2022-11-04T12:09:51;14.43;64.65
69546;SHT31;56766;52.260;20.746;2022-11-04T12:21:26;13.95;65.66
69546;SHT31;56766;52.260;20.746;2022-11-04T12:24:14;13.82;65.82
69546;SHT31;56766;52.260;20.746;2022-11-04T12:27:13;13.69;66.10
69546;SHT31;56766;52.260;20.746;2022-11-04T12:30:13;13.56;66.55
69546;SHT31;56766;52.260;20.746;2022-11-04T12:33:05;13.47;66.70
69546;SHT31;56766;52.260;20.746;2022-11-04T12:36:35;13.35;66.96
69546;SHT31;56766;52.260;20.746;2022-11-04T12:39:16;13.25;67.38
69546;SHT31;56766;52.260;20.746;2022-11-04T12:42:03;13.17;67.37
69546;SHT31;56766;52.260;20.746;2022-11-04T12:44:49;13.09;67.57
69546;SHT31;56766;52.260;20.746;2022-11-04T12:50:17;12.97;68.14
69546;SHT31;56766;52.260;20.746;2022-11-04T12:56:05;12.84;68.61
69546;SHT31;56766;52.260;20.746;2022-11-04T13:01:40;12.77;68.89
69546;SHT31;56766;52.260;20.746;2022-11-04T13:04:19;12.74;68.96
69546;SHT31;56766;52.260;20.746;2022-11-04T13:06:58;12.72;69.09
69546;SHT31;56766;52.260;20.746;2022-11-04T13:09:40;12.71;68.97
69546;SHT31;56766;52.260;20.746;2022-11-04T13:12:16;12.69;69.28
69546;SHT31;56766;52.260;20.746;2022-11-04T13:15:02;12.64;69.16
69546;SHT31;56766;52.260;20.746;2022-11-04T13:17:41;12.59;69.15
69546;SHT31;56766;52.260;20.746;2022-11-04T13:22:44;12.53;69.09
69546;SHT31;56766;52.260;20.746;2022-11-04T13:25:51;12.53;68.98
69546;SHT31;56766;52.260;20.746;2022-11-04T13:28:17;12.52;68.99
69546;SHT31;56766;52.260;20.746;2022-11-04T13:31:03;12.52;69.29
69546;SHT31;56766;52.260;20.746;2022-11-04T13:33:54;12.49;69.59
69546;SHT31;56766;52.260;20.746;2022-11-04T13:36:52;12.47;69.77
69546;SHT31;56766;52.260;20.746;2022-11-04T13:39:36;12.44;69.85
69546;SHT31;56766;52.260;20.746;2022-11-04T13:45:16;12.43;69.85
69546;SHT31;56766;52.260;20.746;2022-11-04T13:47:52;12.43;69.87
69546;SHT31;56766;52.260;20.746;2022-11-04T13:53:09;12.38;69.95
69546;SHT31;56766;52.260;20.746;2022-11-04T13:55:48;12.35;69.96
69546;SHT31;56766;52.260;20.746;2022-11-04T13:58:26;12.32;69.85
69546;SHT31;56766;52.260;20.746;2022-11-04T14:03:51;12.21;69.70
69546;SHT31;56766;52.260;20.746;2022-11-04T14:14:37;12.01;69.93
69546;SHT31;56766;52.260;20.746;2022-11-04T14:22:35;11.85;69.63
69546;SHT31;56766;52.260;20.746;2022-11-04T14:25:31;11.80;69.86
69546;SHT31;56766;52.260;20.746;2022-11-04T14:28:16;11.74;69.78
69546;SHT31;56766;52.260;20.746;2022-11-04T14:31:00;11.69;69.75
69546;SHT31;56766;52.260;20.746;2022-11-04T14:33:33;11.67;69.60
69546;SHT31;56766;52.260;20.746;2022-11-04T14:41:59;11.58;69.61
69546;SHT31;56766;52.260;20.746;2022-11-04T14:44:37;11.54;69.78
69546;SHT31;56766;52.260;20.746;2022-11-04T14:47:26;11.48;69.87
69546;SHT31;56766;52.260;20.746;2022-11-04T14:55:17;11.39;70.13
69546;SHT31;56766;52.260;20.746;2022-11-04T14:57:49;11.38;70.06
69546;SHT31;56766;52.260;20.746;2022-11-04T15:00:36;11.36;70.17
69546;SHT31;56766;52.260;20.746;2022-11-04T15:05:37;11.32;70.22
69546;SHT31;56766;52.260;20.746;2022-11-04T15:10:59;11.27;70.38
69546;SHT31;56766;52.260;20.746;2022-11-04T15:13:26;11.27;70.54
69546;SHT31;56766;52.260;20.746;2022-11-04T15:15:56;11.28;70.28
69546;SHT31;56766;52.260;20.746;2022-11-04T15:18:26;11.28;70.23
69546;SHT31;56766;52.260;20.746;2022-11-04T15:20:57;11.27;70.45
69546;SHT31;56766;52.260;20.746;2022-11-04T15:23:52;11.27;70.57
69546;SHT31;56766;52.260;20.746;2022-11-04T15:26:32;11.23;70.76
69546;SHT31;56766;52.260;20.746;2022-11-04T15:29:11;11.20;70.92
69546;SHT31;56766;52.260;20.746;2022-11-04T15:31:51;11.20;70.97
69546;SHT31;56766;52.260;20.746;2022-11-04T15:34:18;11.22;70.86
69546;SHT31;56766;52.260;20.746;2022-11-04T15:36:47;11.23;70.77
69546;SHT31;56766;52.260;20.746;2022-11-04T15:39:16;11.23;70.71
69546;SHT31;56766;52.260;20.746;2022-11-04T15:41:49;11.23;70.72
69546;SHT31;56766;52.260;20.746;2022-11-04T15:44:45;11.22;70.91
69546;SHT31;56766;52.260;20.746;2022-11-04T15:49:48;11.18;71.08
69546;SHT31;56766;52.260;20.746;2022-11-04T15:52:25;11.18;71.24
69546;SHT31;56766;52.260;20.746;2022-11-04T15:54:56;11.19;71.42
69546;SHT31;56766;52.260;20.746;2022-11-04T15:57:30;11.19;71.43
69546;SHT31;56766;52.260;20.746;2022-11-04T16:02:50;11.19;71.32
69546;SHT31;56766;52.260;20.746;2022-11-04T16:05:34;11.18;71.46
69546;SHT31;56766;52.260;20.746;2022-11-04T16:08:25;11.17;71.51
69546;SHT31;56766;52.260;20.746;2022-11-04T16:11:12;11.16;71.64
69546;SHT31;56766;52.260;20.746;2022-11-04T16:13:42;11.15;71.88
69546;SHT31;56766;52.260;20.746;2022-11-04T16:16:25;11.13;72.15
69546;SHT31;56766;52.260;20.746;2022-11-04T16:18:57;11.11;72.37
69546;SHT31;56766;52.260;20.746;2022-11-04T16:24:21;11.05;72.81
69546;SHT31;56766;52.260;20.746;2022-11-04T16:26:49;11.02;73.22
69546;SHT31;56766;52.260;20.746;2022-11-04T16:29:28;11.00;73.69
69546;SHT31;56766;52.260;20.746;2022-11-04T16:34:45;10.95;74.17
69546;SHT31;56766;52.260;20.746;2022-11-04T16:37:14;10.93;74.47
69546;SHT31;56766;52.260;20.746;2022-11-04T16:39:43;10.90;74.76
69546;SHT31;56766;52.260;20.746;2022-11-04T16:42:13;10.88;74.93
69546;SHT31;56766;52.260;20.746;2022-11-04T16:44:47;10.85;75.30
69546;SHT31;56766;52.260;20.746;2022-11-04T16:47:27;10.83;75.56
69546;SHT31;56766;52.260;20.746;2022-11-04T16:50:00;10.82;75.74
69546;SHT31;56766;52.260;20.746;2022-11-04T16:52:27;10.82;75.72
69546;SHT31;56766;52.260;20.746;2022-11-04T16:54:55;10.78;75.90
69546;SHT31;56766;52.260;20.746;2022-11-04T16:57:23;10.75;76.11
69546;SHT31;56766;52.260;20.746;2022-11-04T16:59:50;10.72;76.22
69546;SHT31;56766;52.260;20.746;2022-11-04T17:02:29;10.72;76.34
69546;SHT31;56766;52.260;20.746;2022-11-04T17:05:07;10.70;76.26
69546;SHT31;56766;52.260;20.746;2022-11-04T17:07:38;10.71;76.20
69546;SHT31;56766;52.260;20.746;2022-11-04T17:10:21;10.69;76.24
69546;SHT31;56766;52.260;20.746;2022-11-04T17:12:49;10.66;76.25
69546;SHT31;56766;52.260;20.746;2022-11-04T17:15:17;10.65;76.42
69546;SHT31;56766;52.260;20.746;2022-11-04T17:17:44;10.66;76.27
69546;SHT31;56766;52.260;20.746;2022-11-04T17:20:16;10.68;76.09
69546;SHT31;56766;52.260;20.746;2022-11-04T17:22:45;10.67;76.19
69546;SHT31;56766;52.260;20.746;2022-11-04T17:25:19;10.66;76.04
69546;SHT31;56766;52.260;20.746;2022-11-04T17:27:47;10.66;76.00
69546;SHT31;56766;52.260;20.746;2022-11-04T17:30:15;10.65;76.16
69546;SHT31;56766;52.260;20.746;2022-11-04T17:32:45;10.65;76.01
69546;SHT31;56766;52.260;20.746;2022-11-04T17:35:14;10.65;75.98
69546;SHT31;56766;52.260;20.746;2022-11-04T17:37:42;10.64;75.93
69546;SHT31;56766;52.260;20.746;2022-11-04T17:40:15;10.63;75.90
69546;SHT31;56766;52.260;20.746;2022-11-04T17:42:43;10.61;76.03
69546;SHT31;56766;52.260;20.746;2022-11-04T17:45:30;10.59;76.04
69546;SHT31;56766;52.260;20.746;2022-11-04T17:48:01;10.61;76.00
69546;SHT31;56766;52.260;20.746;2022-11-04T17:50:31;10.61;76.01
69546;SHT31;56766;52.260;20.746;2022-11-04T17:52:58;10.61;75.95
69546;SHT31;56766;52.260;20.746;2022-11-04T17:55:25;10.62;75.94
69546;SHT31;56766;52.260;20.746;2022-11-04T17:57:51;10.62;76.01
69546;SHT31;56766;52.260;20.746;2022-11-04T18:00:18;10.61;76.00
69546;SHT31;56766;52.260;20.746;2022-11-04T18:02:49;10.62;75.93
69546;SHT31;56766;52.260;20.746;2022-11-04T18:05:16;10.64;75.90
69546;SHT31;56766;52.260;20.746;2022-11-04T18:07:42;10.64;75.78
69546;SHT31;56766;52.260;20.746;2022-11-04T18:10:09;10.66;75.92
69546;SHT31;56766;52.260;20.746;2022-11-04T18:12:36;10.65;75.84
69546;SHT31;56766;52.260;20.746;2022-11-04T18:15:13;10.66;75.96
69546;SHT31;56766;52.260;20.746;2022-11-04T18:17:44;10.64;76.01
69546;SHT31;56766;52.260;20.746;2022-11-04T18:20:13;10.65;76.04
69546;SHT31;56766;52.260;20.746;2022-11-04T18:22:42;10.65;75.99
69546;SHT31;56766;52.260;20.746;2022-11-04T18:25:10;10.65;76.05
69546;SHT31;56766;52.260;20.746;2022-11-04T18:27:37;10.64;76.05
69546;SHT31;56766;52.260;20.746;2022-11-04T18:30:05;10.65;76.04
69546;SHT31;56766;52.260;20.746;2022-11-04T18:32:32;10.66;76.13
69546;SHT31;56766;52.260;20.746;2022-11-04T18:34:59;10.67;76.18
69546;SHT31;56766;52.260;20.746;2022-11-04T18:37:27;10.68;76.20
69546;SHT31;56766;52.260;20.746;2022-11-04T18:39:54;10.67;76.19
69546;SHT31;56766;52.260;20.746;2022-11-04T18:42:20;10.66;76.21